Time;durP1;ratioP1;P1;durP2;ratioP2;P2;SDS_P1;SDS_P2;PMS_P1;PMS_P2;Temp;Humidity;BMP_temperature;BMP_pressure;BME280_temperature;BME280_humidity;BME280_pressure;Samples;Min_cycle;Max_cycle;Signal;HPM_P1;HPM_P2
2023/04/10 00:01:49;;;;;;;5.70;5.20;;;;;;;5.96;100.00;99165.81;15269503;19;20022;-45
2023/04/10 00:07:17;;;;;;;5.82;5.30;;;;;;;5.98;100.00;99166.56;15271974;19;20043;-46
2023/04/10 00:12:42;;;;;;;5.97;5.47;;;;;;;6.00;100.00;99171.81;15267483;19;20011;-44
2023/04/10 00:18:06;;;;;;;5.55;5.05;;;;;;;6.02;100.00;99172.56;15272066;19;20026;-44
2023/04/10 00:23:33;;;;;;;6.85;6.22;;;;;;;6.01;100.00;99168.19;15265809;19;20034;-46
2023/04/10 00:28:58;;;;;;;5.80;5.30;;;;;;;5.99;100.00;99156.69;15269167;19;20019;-45
2023/04/10 00:34:23;;;;;;;6.32;5.80;;;;;;;5.93;100.00;99160.69;15271955;19;20010;-45
2023/04/10 00:39:50;;;;;;;6.20;5.70;;;;;;;5.94;100.00;99148.19;15270433;19;20027;-46
2023/04/10 00:45:15;;;;;;;6.63;6.03;;;;;;;5.90;100.00;99141.34;15271785;19;20010;-45
2023/04/10 00:50:46;;;;;;;6.70;6.10;;;;;;;5.85;100.00;99139.84;15268409;19;20023;-48
2023/04/10 00:56:14;;;;;;;6.30;5.80;;;;;;;5.78;100.00;99143.09;15268814;19;20007;-46
2023/04/10 01:01:38;;;;;;;6.60;6.00;;;;;;;5.68;100.00;99130.41;15264598;19;20028;-46
2023/04/10 01:07:11;;;;;;;6.50;5.90;;;;;;;5.43;100.00;99128.66;15268558;19;20475;-48
2023/04/10 01:13:04;;;;;;;6.57;5.97;;;;;;;5.29;100.00;99124.34;15265700;19;20027;-48
2023/04/10 01:18:33;;;;;;;;;;;;;;;5.21;100.00;99130.22;15267918;19;20022;-46
2023/04/10 01:24:20;;;;;;;6.95;6.35;;;;;;;5.19;100.00;99139.28;15261631;19;19911;-48
2023/04/10 01:29:52;;;;;;;6.78;6.13;;;;;;;5.14;100.00;99133.44;15264911;19;20029;-47
2023/04/10 01:35:19;;;;;;;7.05;6.43;;;;;;;5.07;100.00;99128.50;15266474;19;20082;-45
2023/04/10 01:40:48;;;;;;;7.40;6.70;;;;;;;4.98;100.00;99129.16;15264698;19;20014;-45
2023/04/10 01:46:20;;;;;;;7.50;6.80;;;;;;;4.86;100.00;99136.25;15267850;19;20018;-45
2023/04/10 01:51:53;;;;;;;7.70;7.00;;;;;;;4.68;100.00;99137.50;15261813;19;20035;-47
2023/04/10 01:57:19;;;;;;;7.43;6.72;;;;;;;4.54;100.00;99123.28;15262124;19;20039;-45
2023/04/10 02:02:46;;;;;;;8.00;7.30;;;;;;;4.41;100.00;99130.44;15269220;19;20014;-46
2023/04/10 02:08:17;;;;;;;7.97;7.28;;;;;;;4.40;100.00;99115.41;15263186;19;20015;-44
2023/04/10 02:13:43;;;;;;;7.30;6.70;;;;;;;4.41;100.00;99120.63;15264610;19;20038;-46
2023/04/10 02:19:12;;;;;;;8.40;7.60;;;;;;;4.39;100.00;99119.03;15264459;19;20043;-48
2023/04/10 02:24:37;;;;;;;8.32;7.53;;;;;;;4.40;100.00;99128.75;15268013;19;20073;-47
2023/04/10 02:30:02;;;;;;;8.18;7.43;;;;;;;4.42;100.00;99140.13;15264977;19;20017;-44
2023/04/10 02:35:30;;;;;;;8.98;7.53;;;;;;;4.45;100.00;99131.94;15266173;19;20073;-48
2023/04/10 02:40:56;;;;;;;9.27;8.32;;;;;;;4.50;100.00;99143.16;15260881;19;20050;-46
2023/04/10 02:46:21;;;;;;;8.73;7.93;;;;;;;4.51;100.00;99139.53;15262634;19;20018;-46
2023/04/10 02:51:56;;;;;;;8.60;7.80;;;;;;;4.42;100.00;99145.47;15261116;19;20058;-44
2023/04/10 02:57:21;;;;;;;8.25;7.45;;;;;;;4.29;100.00;99146.31;15263196;19;20022;-44
2023/04/10 03:02:46;;;;;;;8.85;8.05;;;;;;;4.17;100.00;99139.16;15255967;19;20020;-45
2023/04/10 03:08:20;;;;;;;8.48;7.72;;;;;;;4.13;100.00;99151.81;15258781;19;20021;-45
2023/04/10 03:13:44;;;;;;;8.27;7.47;;;;;;;4.05;100.00;99148.81;15261196;19;20471;-46
2023/04/10 03:19:10;;;;;;;8.30;7.50;;;;;;;3.97;100.00;99146.66;15256400;19;20019;-46
2023/04/10 03:24:38;;;;;;;9.00;8.15;;;;;;;3.92;100.00;99156.78;15260366;19;20658;-45
2023/04/10 03:30:04;;;;;;;8.93;8.13;;;;;;;3.92;100.00;99150.56;15259201;19;20046;-44
2023/04/10 03:35:31;;;;;;;9.30;8.40;;;;;;;3.89;100.00;99151.63;15253929;19;20011;-46
2023/04/10 03:40:58;;;;;;;8.60;7.82;;;;;;;3.81;100.00;99151.28;15256280;19;20500;-45
2023/04/10 03:46:24;;;;;;;9.57;8.57;;;;;;;3.73;100.00;99157.13;15260793;19;20019;-46
2023/04/10 03:51:55;;;;;;;9.35;8.45;;;;;;;3.75;100.00;99154.34;15255302;19;20018;-47
2023/04/10 03:57:22;;;;;;;8.88;8.07;;;;;;;3.70;100.00;99150.16;15259697;19;20039;-46
2023/04/10 04:02:49;;;;;;;10.20;9.20;;;;;;;3.67;100.00;99155.72;15274111;19;20188;-46
2023/04/10 04:08:29;;;;;;;9.65;8.75;;;;;;;3.66;100.00;99156.66;15270208;19;20131;-46
2023/04/10 04:14:17;;;;;;;10.00;9.07;;;;;;;3.61;100.00;99157.91;15273983;19;20050;-47
2023/04/10 04:20:15;;;;;;;10.27;9.27;;;;;;;3.58;100.00;99158.09;15270600;19;20448;-48
2023/04/10 04:25:55;;;;;;;9.52;8.65;;;;;;;3.52;100.00;99151.34;15269898;19;20025;-45
2023/04/10 04:31:36;;;;;;;9.85;8.93;;;;;;;3.48;100.00;99153.38;15267896;19;20041;-45
2023/04/10 04:37:25;;;;;;;10.63;9.63;;;;;;;3.43;100.00;99159.94;15267877;19;20472;-45
2023/04/10 04:43:20;;;;;;;11.02;10.02;;;;;;;3.43;100.00;99165.28;15272431;19;20059;-46
2023/04/10 04:49:14;;;;;;;11.40;10.20;;;;;;;3.46;100.00;99160.59;15269380;19;20011;-45
2023/04/10 04:55:16;;;;;;;11.13;10.02;;;;;;;3.54;100.00;99165.44;15272138;19;20019;-45
2023/04/10 05:00:47;;;;;;;11.80;10.50;;;;;;;3.54;100.00;99157.44;15265981;19;20014;-46
2023/04/10 05:06:33;;;;;;;10.35;9.40;;;;;;;3.53;100.00;99155.72;15265204;19;20408;-49
2023/04/10 05:12:21;;;;;;;10.52;9.43;;;;;;;3.45;100.00;99142.91;15259947;19;20021;-48
2023/04/10 05:17:52;;;;;;;10.93;9.83;;;;;;;3.39;100.00;99149.47;15274327;19;20022;-47
2023/04/10 05:23:40;;;;;;;10.63;9.63;;;;;;;3.38;100.00;99153.09;15266227;19;20502;-48
2023/04/10 05:29:23;;;;;;;12.05;10.85;;;;;;;3.51;100.00;99163.84;15265744;19;20029;-46
2023/04/10 05:35:10;;;;;;;11.55;10.45;;;;;;;3.63;100.00;99167.50;15266042;19;20022;-43
2023/04/10 05:40:47;;;;;;;11.07;9.98;;;;;;;3.69;100.00;99164.47;15261876;19;20011;-46
2023/04/10 05:46:41;;;;;;;10.73;9.73;;;;;;;3.73;100.00;99172.25;15261561;19;20022;-52
2023/04/10 05:52:17;;;;;;;11.18;10.15;;;;;;;3.81;100.00;99177.94;15244310;19;20463;-46
2023/04/10 05:57:57;;;;;;;11.13;9.98;;;;;;;3.89;100.00;99183.63;15259429;19;20018;-48
2023/04/10 06:03:52;;;;;;;10.88;9.88;;;;;;;3.98;100.00;99177.69;15264619;19;20380;-44
2023/04/10 06:09:20;;;;;;;11.00;9.95;;;;;;;4.09;100.00;99181.47;15264202;19;20025;-45
2023/04/10 06:14:48;;;;;;;11.07;10.02;;;;;;;4.18;100.00;99177.34;15262900;19;20037;-44
2023/04/10 06:20:24;;;;;;;10.73;9.73;;;;;;;4.29;100.00;99172.13;15262382;19;20022;-46
2023/04/10 06:25:49;;;;;;;10.68;9.73;;;;;;;4.39;100.00;99164.38;15264375;19;20426;-44
2023/04/10 06:31:16;;;;;;;11.05;9.95;;;;;;;4.53;100.00;99166.94;15260663;19;20022;-44
2023/04/10 06:36:41;;;;;;;10.85;9.75;;;;;;;4.67;100.00;99160.69;15260313;19;20674;-44
2023/04/10 06:42:06;;;;;;;10.30;9.35;;;;;;;4.83;100.00;99157.81;14747698;19;10000549;-43
2023/04/10 06:47:45;;;;;;;10.80;9.80;;;;;;;5.04;100.00;99151.91;15257129;19;20114;-43
2023/04/10 06:53:16;;;;;;;10.52;9.52;;;;;;;5.31;100.00;99156.28;15256660;19;20015;-46
2023/04/10 06:58:41;;;;;;;9.97;9.07;;;;;;;5.46;100.00;99160.53;15261782;19;20359;-45
2023/04/10 07:04:08;;;;;;;10.10;9.10;;;;;;;5.67;100.00;99160.78;15275664;19;20018;-48
2023/04/10 07:09:33;;;;;;;9.65;8.75;;;;;;;5.97;100.00;99161.31;15294128;19;20034;-48
2023/04/10 07:14:57;;;;;;;9.40;8.43;;;;;;;6.26;100.00;99144.94;15259127;19;20010;-44
2023/04/10 07:20:24;;;;;;;8.45;7.65;;;;;;;6.53;100.00;99149.13;15251014;19;20363;-47
2023/04/10 07:25:50;;;;;;;8.10;7.40;;;;;;;6.83;100.00;99145.09;15260646;19;20046;-47
2023/04/10 07:31:16;;;;;;;8.02;7.32;;;;;;;7.13;100.00;99130.22;15256006;19;20488;-44
2023/04/10 07:36:46;;;;;;;7.80;7.00;;;;;;;7.36;100.00;99121.22;15275986;19;20102;-47
2023/04/10 07:42:12;;;;;;;7.22;6.63;;;;;;;7.68;100.00;99117.75;15272708;19;20011;-61
2023/04/10 07:47:36;;;;;;;7.05;6.43;;;;;;;8.01;100.00;99117.75;15273267;19;20014;-43
2023/04/10 07:53:06;;;;;;;6.70;6.10;;;;;;;8.21;100.00;99104.53;15270315;19;20489;-41
2023/04/10 07:58:31;;;;;;;6.47;5.90;;;;;;;8.48;100.00;99096.00;15273800;19;20014;-45
2023/04/10 08:03:57;;;;;;;7.30;6.15;;;;;;;8.71;100.00;99093.16;15275622;19;20022;-44
2023/04/10 08:09:25;;;;;;;6.60;6.00;;;;;;;9.02;100.00;99098.53;15269577;19;20010;-43
2023/04/10 08:14:51;;;;;;;6.18;5.50;;;;;;;9.30;100.00;99078.13;15270827;19;20333;-44
2023/04/10 08:20:17;;;;;;;7.15;5.60;;;;;;;9.58;100.00;99077.50;15267621;19;20922;-43
2023/04/10 08:25:45;;;;;;;5.53;5.03;;;;;;;9.82;100.00;99082.47;15264704;19;20014;-43
2023/04/10 08:31:09;;;;;;;5.55;5.00;;;;;;;10.05;100.00;99063.34;15264150;19;20022;-44
2023/04/10 08:36:34;;;;;;;5.15;4.70;;;;;;;10.36;100.00;99064.03;15269347;19;20014;-44
2023/04/10 08:42:01;;;;;;;4.80;4.40;;;;;;;10.75;100.00;99064.00;15264339;19;20029;-42
2023/04/10 08:47:29;;;;;;;4.97;4.47;;;;;;;10.89;100.00;99056.41;15269440;19;20389;-43
2023/04/10 08:53:04;;;;;;;5.28;4.70;;;;;;;11.06;100.00;99052.94;15265560;19;20023;-43
2023/04/10 08:58:33;;;;;;;5.07;4.68;;;;;;;11.34;100.00;99042.16;15264001;19;20015;-46
2023/04/10 09:03:57;;;;;;;4.90;4.50;;;;;;;11.60;100.00;99046.81;15268279;19;20093;-48
2023/04/10 09:09:22;;;;;;;4.75;4.25;;;;;;;11.79;100.00;99042.28;15263745;19;20028;-50
2023/04/10 09:14:52;;;;;;;4.57;3.95;;;;;;;12.08;100.00;99039.38;15266695;19;20393;-47
2023/04/10 09:20:23;;;;;;;4.07;3.67;;;;;;;12.22;100.00;99024.47;15263507;19;20218;-45
2023/04/10 09:25:48;;;;;;;4.15;3.75;;;;;;;12.42;100.00;99019.72;15260746;19;20011;-44
2023/04/10 09:31:33;;;;;;;4.15;3.75;;;;;;;12.63;100.00;99011.25;15249918;19;20129;-45
2023/04/10 09:37:03;;;;;;;3.28;2.97;;;;;;;12.89;100.00;99002.22;15261703;19;20813;-45
2023/04/10 09:42:35;;;;;;;4.37;3.13;;;;;;;13.04;100.00;98999.78;15261626;19;20629;-45
2023/04/10 09:48:17;;;;;;;3.40;3.10;;;;;;;13.22;100.00;98996.97;15251583;19;20255;-44
2023/04/10 09:53:57;;;;;;;5.10;3.50;;;;;;;13.37;100.00;98980.06;15257813;19;20021;-47
2023/04/10 09:59:22;;;;;;;3.40;3.10;;;;;;;13.42;99.16;98964.22;15251488;19;20054;-44
2023/04/10 10:04:52;;;;;;;3.20;2.78;;;;;;;13.48;94.82;98957.28;15253143;19;20010;-46
2023/04/10 10:10:17;;;;;;;3.65;3.30;;;;;;;13.46;91.10;98935.81;15261414;19;20022;-45
2023/04/10 10:15:46;;;;;;;3.70;3.40;;;;;;;13.61;98.75;98933.28;15267601;19;20093;-45
2023/04/10 10:21:15;;;;;;;4.18;3.78;;;;;;;13.73;97.92;98922.94;15263153;19;20029;-45
2023/04/10 10:26:41;;;;;;;4.50;4.10;;;;;;;13.79;100.00;98918.72;15264842;19;20498;-47
2023/04/10 10:32:08;;;;;;;4.25;3.85;;;;;;;13.87;100.00;98911.44;15260247;19;20017;-48
2023/04/10 10:37:37;;;;;;;3.42;3.00;;;;;;;14.07;100.00;98897.53;15268280;19;20014;-49
2023/04/10 10:43:10;;;;;;;3.90;3.50;;;;;;;14.20;99.04;98888.00;15263876;19;20021;-48
2023/04/10 10:48:34;;;;;;;3.40;3.10;;;;;;;14.32;96.53;98884.78;15266963;19;20021;-45
2023/04/10 10:54:09;;;;;;;2.90;2.70;;;;;;;14.37;87.73;98889.69;15262646;19;20928;-46
2023/04/10 10:59:55;;;;;;;3.22;2.92;;;;;;;14.35;80.12;98872.75;15263399;19;20020;-45
2023/04/10 11:05:54;;;;;;;3.70;3.40;;;;;;;14.57;95.10;98859.44;15255634;19;20014;-45
2023/04/10 11:11:23;;;;;;;3.40;3.10;;;;;;;14.73;85.83;98859.41;15271699;19;20033;-45
2023/04/10 11:16:54;;;;;;;3.50;3.15;;;;;;;14.97;91.75;98849.44;15280023;19;20395;-44
2023/04/10 11:22:19;;;;;;;3.00;2.80;;;;;;;15.00;80.53;98840.06;15272914;19;20014;-45
2023/04/10 11:27:52;;;;;;;3.20;2.90;;;;;;;15.05;73.08;98845.81;15281397;19;20021;-45
2023/04/10 11:33:20;;;;;;;2.70;2.50;;;;;;;15.11;65.07;98839.66;15272224;19;20014;-48
2023/04/10 11:38:45;;;;;;;2.67;2.42;;;;;;;15.18;66.31;98834.34;15267761;19;20023;-45
2023/04/10 11:44:15;;;;;;;2.75;2.53;;;;;;;15.22;64.50;98835.69;15267471;19;20018;-45
2023/04/10 11:49:42;;;;;;;2.33;2.17;;;;;;;15.24;62.81;98812.75;15271420;19;20018;-45
2023/04/10 11:55:16;;;;;;;2.58;2.38;;;;;;;15.27;64.36;98805.28;15272056;19;20018;-45
2023/04/10 12:00:44;;;;;;;2.65;2.45;;;;;;;15.46;61.61;98809.38;15274334;19;20042;-46
2023/04/10 12:06:08;;;;;;;2.58;2.38;;;;;;;15.60;66.31;98802.28;15276978;19;20046;-45
2023/04/10 12:11:33;;;;;;;2.05;1.90;;;;;;;15.76;67.17;98788.50;15267941;19;20379;-48
2023/04/10 12:17:00;;;;;;;2.55;2.10;;;;;;;15.95;67.52;98780.88;15276831;19;20150;-49
2023/04/10 12:22:26;;;;;;;2.10;1.92;;;;;;;16.15;63.11;98760.25;15271546;19;20021;-46
2023/04/10 12:27:57;;;;;;;1.80;1.70;;;;;;;16.24;59.39;98752.84;15276958;19;20098;-49
2023/04/10 12:33:26;;;;;;;1.77;1.52;;;;;;;16.41;61.03;98747.16;15269440;19;20502;-49
2023/04/10 12:38:51;;;;;;;2.45;1.60;;;;;;;16.60;58.98;98735.69;15273880;19;20022;-48
2023/04/10 12:44:17;;;;;;;1.60;1.50;;;;;;;16.65;56.94;98716.06;15270077;19;20026;-46
2023/04/10 12:49:44;;;;;;;1.42;1.33;;;;;;;16.93;56.47;98718.03;15272399;19;20022;-46
2023/04/10 12:55:21;;;;;;;1.55;1.45;;;;;;;17.06;55.58;98703.72;15270190;19;20020;-48
2023/04/10 13:00:46;;;;;;;1.50;1.40;;;;;;;17.10;53.37;98681.34;15271670;19;20031;-47
2023/04/10 13:06:14;;;;;;;1.50;1.38;;;;;;;17.21;53.64;98673.66;15273863;19;20029;-48
2023/04/10 13:11:39;;;;;;;1.50;1.40;;;;;;;17.21;50.41;98666.34;15269607;19;20014;-46
2023/04/10 13:17:05;;;;;;;1.63;1.30;;;;;;;17.37;52.28;98662.50;15269432;19;20010;-45
2023/04/10 13:22:33;;;;;;;1.70;1.60;;;;;;;17.51;51.03;98655.22;15268332;19;20021;-48
2023/04/10 13:27:57;;;;;;;1.98;1.88;;;;;;;17.55;53.89;98651.06;15274255;19;20018;-47
2023/04/10 13:33:23;;;;;;;1.52;1.42;;;;;;;17.86;50.92;98638.84;15265984;19;20033;-47
2023/04/10 13:38:51;;;;;;;1.73;1.60;;;;;;;18.00;53.52;98626.13;15271293;19;20363;-48
2023/04/10 13:44:16;;;;;;;1.52;1.42;;;;;;;18.01;50.20;98621.53;15271261;19;20014;-46
2023/04/10 13:49:40;;;;;;;1.50;1.40;;;;;;;18.10;51.56;98619.47;15264658;19;20099;-48
2023/04/10 13:55:15;;;;;;;3.05;1.30;;;;;;;18.23;49.86;98599.56;15267514;19;20094;-46
2023/04/10 14:00:41;;;;;;;1.30;1.20;;;;;;;18.39;50.94;98595.59;15267291;19;20018;-47
2023/04/10 14:06:05;;;;;;;1.40;1.30;;;;;;;18.70;51.59;98585.97;15270894;19;20093;-46
2023/04/10 14:11:33;;;;;;;1.40;1.30;;;;;;;18.56;48.39;98585.97;15262309;19;20019;-47
2023/04/10 14:16:58;;;;;;;1.70;1.10;;;;;;;18.71;50.31;98582.19;15267163;19;20045;-47
2023/04/10 14:22:23;;;;;;;1.15;1.05;;;;;;;18.74;48.00;98577.16;15261606;19;20010;-50
2023/04/10 14:27:51;;;;;;;1.55;1.42;;;;;;;18.74;47.14;98568.13;15268268;19;20022;-48
2023/04/10 14:33:16;;;;;;;1.30;1.20;;;;;;;18.72;47.00;98551.97;15265473;19;20022;-47
2023/04/10 14:38:40;;;;;;;1.15;1.15;;;;;;;18.74;49.80;98552.59;15266410;19;20197;-47
2023/04/10 14:44:08;;;;;;;1.23;1.20;;;;;;;18.70;46.57;98534.97;15265970;19;20022;-47
2023/04/10 14:49:32;;;;;;;2.95;1.17;;;;;;;19.22;47.73;98537.81;15264095;19;20025;-48
2023/04/10 14:55:03;;;;;;;1.65;1.10;;;;;;;19.39;46.33;98507.31;15258068;19;20057;-50
2023/04/10 15:00:31;;;;;;;1.10;1.10;;;;;;;19.46;45.98;98496.34;15264532;19;20302;-49
2023/04/10 15:05:55;;;;;;;1.13;1.00;;;;;;;19.32;46.76;98499.13;15268210;19;20018;-48
2023/04/10 15:11:20;;;;;;;1.00;1.00;;;;;;;19.34;46.31;98488.00;15262890;19;20020;-46
2023/04/10 15:16:41;;;;;;;1.20;1.10;;;;;;;19.12;46.99;98484.69;15265266;19;20029;-47
2023/04/10 15:22:07;;;;;;;1.25;1.15;;;;;;;18.73;46.68;98488.16;15260148;19;20014;-45
2023/04/10 15:27:32;;;;;;;1.30;1.20;;;;;;;18.50;47.06;98476.84;15259515;19;20019;-47
2023/04/10 15:33:00;;;;;;;2.53;1.25;;;;;;;18.28;47.70;98480.63;15262663;19;20021;-47
2023/04/10 15:38:27;;;;;;;1.10;1.10;;;;;;;17.84;49.08;98469.22;15262981;19;20031;-46
2023/04/10 15:43:51;;;;;;;1.50;1.40;;;;;;;17.45;49.32;98456.38;15264439;19;20367;-46
2023/04/10 15:49:19;;;;;;;1.10;1.10;;;;;;;17.37;48.74;98451.94;15262042;19;20353;-48
2023/04/10 15:55:01;;;;;;;1.23;1.13;;;;;;;17.48;49.93;98443.16;15262839;19;20014;-47
2023/04/10 16:00:26;;;;;;;1.33;1.23;;;;;;;17.36;49.93;98428.47;15267213;19;20097;-45
2023/04/10 16:05:54;;;;;;;1.20;1.20;;;;;;;17.40;52.04;98418.84;15277799;19;20290;-48
2023/04/10 16:11:19;;;;;;;1.30;1.20;;;;;;;17.34;50.28;98404.19;15273341;19;20015;-47
2023/04/10 16:16:44;;;;;;;1.30;1.20;;;;;;;17.25;52.27;98403.53;15277205;19;20042;-46
2023/04/10 16:22:12;;;;;;;1.20;1.10;;;;;;;16.98;50.37;98390.88;15268773;19;20366;-49
2023/04/10 16:27:36;;;;;;;1.20;1.10;;;;;;;16.72;53.37;98387.78;15277295;19;20053;-50
2023/04/10 16:33:02;;;;;;;1.10;1.10;;;;;;;16.49;53.05;98379.94;15267790;19;20538;-48
2023/04/10 16:38:30;;;;;;;2.38;1.40;;;;;;;16.30;52.29;98371.47;15274674;19;20039;-49
2023/04/10 16:43:56;;;;;;;3.10;1.85;;;;;;;16.09;51.40;98372.38;15270098;19;20317;-49
2023/04/10 16:49:21;;;;;;;3.50;3.20;;;;;;;15.96;53.66;98354.09;15270314;19;20010;-46
2023/04/10 16:54:50;;;;;;;2.10;2.00;;;;;;;15.81;52.03;98350.63;15265162;19;20018;-48
2023/04/10 17:00:16;;;;;;;1.10;1.10;;;;;;;15.46;52.56;98345.09;15267957;19;20426;-47
2023/04/10 17:05:41;;;;;;;2.63;1.10;;;;;;;15.32;52.43;98342.25;15269852;19;20363;-48
2023/04/10 17:11:09;;;;;;;0.95;0.95;;;;;;;15.17;53.25;98330.63;15266625;19;20014;-49
2023/04/10 17:16:35;;;;;;;1.40;1.30;;;;;;;15.00;52.84;98317.28;15270260;19;20479;-48
2023/04/10 17:21:59;;;;;;;1.40;1.30;;;;;;;14.90;54.92;98317.63;15265679;19;20015;-45
2023/04/10 17:27:27;;;;;;;1.50;1.40;;;;;;;14.79;53.42;98309.97;15269289;19;20014;-48
2023/04/10 17:32:54;;;;;;;1.30;1.30;;;;;;;14.63;54.81;98308.31;15262005;19;20352;-48
2023/04/10 17:38:19;;;;;;;1.30;1.20;;;;;;;14.58;55.53;98302.59;15270402;19;20015;-46
2023/04/10 17:43:47;;;;;;;1.40;1.15;;;;;;;14.40;56.54;98287.59;15267132;19;20055;-48
2023/04/10 17:49:11;;;;;;;1.50;1.20;;;;;;;14.22;56.21;98288.00;15267622;19;20014;-46
2023/04/10 17:54:35;;;;;;;1.20;1.20;;;;;;;14.07;56.40;98276.31;15265784;19;20039;-50
2023/04/10 18:00:03;;;;;;;1.10;1.10;;;;;;;13.93;56.94;98283.44;15264777;19;20022;-45
2023/04/10 18:05:27;;;;;;;1.10;1.10;;;;;;;13.83;59.72;98279.09;15264967;19;20028;-47
2023/04/10 18:10:59;;;;;;;1.90;1.10;;;;;;;13.65;57.19;98271.34;15264994;19;20078;-78
2023/04/10 18:16:29;;;;;;;1.20;1.20;;;;;;;13.56;59.21;98267.03;15268115;19;20010;-78
2023/04/10 18:21:55;;;;;;;1.40;1.30;;;;;;;13.49;62.57;98260.69;15276925;19;20019;-79
2023/04/10 18:27:24;;;;;;;1.30;1.20;;;;;;;13.28;61.52;98273.03;15278453;19;20006;-78
2023/04/10 18:32:52;;;;;;;1.20;1.20;;;;;;;13.21;63.09;98272.91;15272176;19;20006;-77
2023/04/10 18:38:19;;;;;;;1.20;1.10;;;;;;;13.10;63.99;98266.06;15281693;19;20373;-79
2023/04/10 18:43:46;;;;;;;1.30;1.20;;;;;;;12.94;66.19;98253.50;15282414;19;20572;-77
2023/04/10 18:49:28;;;;;;;1.30;1.20;;;;;;;12.85;67.11;98246.50;15321455;19;20010;-79
2023/04/10 18:55:20;;;;;;;1.40;1.30;;;;;;;12.73;68.50;98235.25;15338283;19;20012;-80
2023/04/10 19:00:50;;;;;;;1.40;1.30;;;;;;;12.60;69.17;98233.16;15332215;19;20013;-78
2023/04/10 19:06:26;;;;;;;1.30;1.20;;;;;;;12.62;76.25;98217.59;15286346;19;20013;-79
2023/04/10 19:11:58;;;;;;;1.33;1.23;;;;;;;12.46;74.75;98220.38;15270748;19;20029;-81
2023/04/10 19:17:24;;;;;;;1.50;1.40;;;;;;;12.38;77.58;98209.66;15290522;19;20054;-79
2023/04/10 19:22:52;;;;;;;1.50;1.40;;;;;;;12.33;84.12;98191.28;15290411;19;20030;-77
2023/04/10 19:28:18;;;;;;;1.52;1.42;;;;;;;12.23;81.36;98191.50;15282017;19;20018;-79
2023/04/10 19:33:42;;;;;;;1.55;1.40;;;;;;;12.13;81.63;98188.19;15285945;19;20039;-80
2023/04/10 19:39:09;;;;;;;1.42;1.33;;;;;;;12.12;79.52;98189.19;15297001;19;20014;-82
2023/04/10 19:44:34;;;;;;;1.45;1.35;;;;;;;12.10;80.99;98185.81;15297469;19;20007;-82
2023/04/10 19:49:58;;;;;;;2.10;1.38;;;;;;;12.04;77.76;98181.97;15294613;19;20366;-80
2023/04/10 19:55:26;;;;;;;1.60;1.50;;;;;;;12.01;77.83;98166.97;15289749;19;20015;-79
2023/04/10 20:00:51;;;;;;;1.55;1.45;;;;;;;11.97;79.04;98162.91;15289880;19;20020;-81
2023/04/10 20:06:17;;;;;;;1.92;1.50;;;;;;;11.93;75.82;98172.38;15289498;19;20015;-80
2023/04/10 20:11:44;;;;;;;1.60;1.50;;;;;;;11.92;77.82;98159.03;15286923;19;20492;-79
2023/04/10 20:17:10;;;;;;;1.50;1.40;;;;;;;11.88;77.65;98151.28;15295000;19;20035;-79
2023/04/10 20:22:35;;;;;;;1.80;1.70;;;;;;;11.83;75.63;98147.44;15298971;19;20026;-82
2023/04/10 20:28:03;;;;;;;1.60;1.50;;;;;;;11.77;76.16;98131.97;15295403;19;20043;-82
2023/04/10 20:33:27;;;;;;;1.60;1.50;;;;;;;11.70;71.74;98123.72;15295455;19;20304;-84
2023/04/10 20:38:53;;;;;;;1.58;1.45;;;;;;;11.67;72.47;98119.53;15297905;19;20014;-84
2023/04/10 20:44:28;;;;;;;1.55;1.45;;;;;;;11.63;72.03;98104.69;15296159;19;20074;-81
2023/04/10 20:49:53;;;;;;;1.65;1.55;;;;;;;11.60;71.81;98093.44;15290531;19;20020;-83
2023/04/10 20:55:18;;;;;;;1.70;1.60;;;;;;;11.58;71.71;98101.72;15297013;19;20058;-84
2023/04/10 21:00:45;;;;;;;1.98;1.70;;;;;;;11.55;68.69;98092.09;15302643;19;20018;-80
2023/04/10 21:06:11;;;;;;;1.70;1.60;;;;;;;11.54;69.22;98084.19;15304622;19;20082;-80
2023/04/10 21:11:43;;;;;;;1.60;1.50;;;;;;;11.53;69.41;98071.72;15298531;19;20035;-80
2023/04/10 21:17:11;;;;;;;1.70;1.60;;;;;;;11.45;67.90;98063.66;15301893;19;20016;-81
2023/04/10 21:22:37;;;;;;;1.60;1.50;;;;;;;11.47;70.03;98061.59;15300213;19;20029;-84
2023/04/10 21:28:09;;;;;;;1.60;1.50;;;;;;;11.39;66.93;98044.47;15273175;19;20387;-46
2023/04/10 21:33:36;;;;;;;1.65;1.50;;;;;;;11.38;66.97;98052.72;15268439;19;20022;-46
2023/04/10 21:39:02;;;;;;;1.50;1.40;;;;;;;11.32;68.04;98059.66;15268575;19;20046;-46
2023/04/10 21:44:27;;;;;;;2.00;1.60;;;;;;;11.23;66.94;98034.59;15268478;19;20049;-47
2023/04/10 21:49:55;;;;;;;1.40;1.30;;;;;;;11.18;66.82;98026.16;15266461;19;20482;-49
2023/04/10 21:55:20;;;;;;;1.70;1.60;;;;;;;11.20;66.12;98023.31;15260032;19;20007;-45
2023/04/10 22:00:46;;;;;;;1.60;1.50;;;;;;;11.16;66.64;98005.78;15264648;19;20382;-47
2023/04/10 22:06:13;;;;;;;1.50;1.40;;;;;;;11.14;65.55;97994.34;15266765;19;20014;-45
2023/04/10 22:11:38;;;;;;;1.40;1.30;;;;;;;11.13;66.27;97984.56;15263196;19;20336;-46
2023/04/10 22:17:03;;;;;;;1.65;1.55;;;;;;;11.08;64.52;97966.22;15263753;19;20022;-44
2023/04/10 22:22:31;;;;;;;1.60;1.50;;;;;;;11.08;67.05;97969.78;15260904;19;20367;-45
2023/04/10 22:27:56;;;;;;;1.73;1.60;;;;;;;11.05;65.67;97964.72;15256151;19;20294;-43
2023/04/10 22:33:27;;;;;;;3.92;1.50;;;;;;;11.04;66.75;97960.34;15263121;19;20033;-44
2023/04/10 22:38:56;;;;;;;1.67;1.30;;;;;;;11.02;66.77;97954.28;15264822;19;20766;-43
2023/04/10 22:44:21;;;;;;;1.60;1.50;;;;;;;10.95;67.08;97929.91;15263943;19;20082;-47
2023/04/10 22:49:47;;;;;;;1.60;1.50;;;;;;;10.92;66.77;97929.41;15262183;19;20009;-44
2023/04/10 22:55:17;;;;;;;1.52;1.42;;;;;;;10.90;66.96;97915.28;15261380;19;20010;-45
2023/04/10 23:00:45;;;;;;;1.60;1.50;;;;;;;10.88;66.53;97891.22;15255020;19;20014;-46
2023/04/10 23:06:10;;;;;;;1.50;1.40;;;;;;;10.88;69.93;97891.22;15261733;19;20010;-46
2023/04/10 23:11:38;;;;;;;1.58;1.48;;;;;;;10.87;67.51;97875.22;15259121;19;20385;-48
2023/04/10 23:17:03;;;;;;;1.50;1.40;;;;;;;10.85;68.25;97875.38;15257336;19;20014;-47
2023/04/10 23:22:29;;;;;;;1.40;1.30;;;;;;;10.87;69.47;97859.88;15257093;19;20010;-46
2023/04/10 23:27:58;;;;;;;1.60;1.50;;;;;;;10.90;70.28;97829.03;15258185;19;20050;-46
2023/04/10 23:33:23;;;;;;;1.50;1.40;;;;;;;10.86;69.53;97792.72;15259909;19;20007;-45
2023/04/10 23:38:49;;;;;;;1.58;1.48;;;;;;;10.89;71.45;97770.75;15259859;19;20081;-43
2023/04/10 23:44:16;;;;;;;1.77;1.67;;;;;;;10.92;69.52;97748.84;15258513;19;20015;-44
2023/04/10 23:49:41;;;;;;;2.95;1.55;;;;;;;10.95;69.57;97753.91;15259802;19;20022;-47
2023/04/10 23:55:06;;;;;;;1.60;1.50;;;;;;;10.93;68.42;97790.97;15258235;19;20037;-46
